createdAt,value
2018-06-10T00:00:03.092Z,21.00
2018-06-10T00:01:03.090Z,23.00
2018-06-10T00:02:03.100Z,18.00
2018-06-10T00:03:03.115Z,23.00
2018-06-10T00:04:03.191Z,23.00
2018-06-10T00:05:03.185Z,22.00
2018-06-10T00:06:03.196Z,21.00
2018-06-10T00:07:03.202Z,21.00
2018-06-10T00:08:03.205Z,21.00
2018-06-10T00:09:03.227Z,22.00
2018-06-10T00:10:03.253Z,21.00
2018-06-10T00:11:03.260Z,20.00
2018-06-10T00:12:03.272Z,21.00
2018-06-10T00:13:03.275Z,24.00
2018-06-10T00:14:03.308Z,21.00
2018-06-10T00:15:03.298Z,22.00
2018-06-10T00:16:03.350Z,13.00
2018-06-10T00:17:03.368Z,22.00
2018-06-10T00:18:03.382Z,20.00
2018-06-10T00:19:03.391Z,21.00
2018-06-10T00:20:03.402Z,20.00
2018-06-10T00:21:03.428Z,20.00
2018-06-10T00:22:03.442Z,22.00
2018-06-10T00:23:03.444Z,21.00
2018-06-10T00:24:03.468Z,21.00
2018-06-10T00:25:03.494Z,22.00
2018-06-10T00:26:03.519Z,21.00
2018-06-10T00:27:03.516Z,18.00
2018-06-10T00:28:03.528Z,21.00
2018-06-10T00:29:03.532Z,20.00
2018-06-10T00:30:03.562Z,19.00
2018-06-10T00:31:03.551Z,20.00
2018-06-10T00:32:03.587Z,23.00
2018-06-10T00:33:03.622Z,21.00
2018-06-10T00:34:03.618Z,20.00
2018-06-10T00:35:03.625Z,20.00
2018-06-10T00:36:03.650Z,20.00
2018-06-10T00:37:03.718Z,19.00
2018-06-10T00:38:03.678Z,20.00
2018-06-10T00:39:03.693Z,18.00
2018-06-10T00:40:03.716Z,21.00
2018-06-10T00:41:03.717Z,20.00
2018-06-10T00:42:03.765Z,19.00
2018-06-10T00:43:03.749Z,21.00
2018-06-10T00:44:03.786Z,24.00
2018-06-10T00:45:03.776Z,22.00
2018-06-10T00:46:03.818Z,22.00
2018-06-10T00:47:03.836Z,21.00
2018-06-10T00:48:03.869Z,19.00
2018-06-10T00:49:03.839Z,21.00
2018-06-10T00:50:04.852Z,19.00
2018-06-10T00:51:03.861Z,20.00
2018-06-10T00:52:04.873Z,20.00
2018-06-10T00:53:03.903Z,20.00
2018-06-10T00:54:04.918Z,19.00
2018-06-10T00:55:03.951Z,18.00
2018-06-10T00:56:03.974Z,17.00
2018-06-10T00:57:03.976Z,20.00
2018-06-10T00:58:03.964Z,17.00
2018-06-10T00:59:03.989Z,20.00
2018-06-10T01:00:04.004Z,21.00
2018-06-10T01:01:04.039Z,20.00
2018-06-10T01:02:04.043Z,21.00
2018-06-10T01:03:04.088Z,19.00
2018-06-10T01:04:04.071Z,24.00
2018-06-10T01:05:04.069Z,20.00
2018-06-10T01:06:09.733Z,21.00
2018-06-10T01:07:04.152Z,17.00
2018-06-10T01:08:09.737Z,21.00
2018-06-10T01:09:04.174Z,22.00
2018-06-10T01:10:04.177Z,18.00
2018-06-10T01:11:04.178Z,26.00
2018-06-10T01:12:05.208Z,22.00
2018-06-10T01:13:04.227Z,20.00
2018-06-10T01:14:04.232Z,32.00
2018-06-10T01:15:04.289Z,20.00
2018-06-10T01:16:04.262Z,12.00
2018-06-10T01:17:04.267Z,15.00
2018-06-10T01:18:04.300Z,22.00
2018-06-10T01:19:04.298Z,22.00
2018-06-10T01:20:04.334Z,20.00
2018-06-10T01:21:04.492Z,19.00
2018-06-10T01:22:04.334Z,19.00
2018-06-10T01:23:04.354Z,18.00
2018-06-10T01:24:04.359Z,14.00
2018-06-10T01:25:04.419Z,19.00
2018-06-10T01:26:04.400Z,15.00
2018-06-10T01:27:04.423Z,42.00
2018-06-10T01:28:04.443Z,16.00
2018-06-10T01:29:04.454Z,21.00
2018-06-10T01:30:04.483Z,14.00
2018-06-10T01:31:05.476Z,15.00
2018-06-10T01:32:04.492Z,17.00
2018-06-10T01:33:04.551Z,19.00
2018-06-10T01:34:04.504Z,18.00
2018-06-10T01:35:05.541Z,19.00
2018-06-10T01:36:04.785Z,22.00
2018-06-10T01:37:04.591Z,17.00
2018-06-10T01:38:04.581Z,16.00
2018-06-10T01:39:04.614Z,15.00
2018-06-10T01:40:04.618Z,14.00
2018-06-10T01:41:04.647Z,19.00
2018-06-10T01:42:04.650Z,17.00
2018-06-10T01:43:04.672Z,16.00
2018-06-10T01:44:05.685Z,17.00
2018-06-10T01:45:04.695Z,24.00
2018-06-10T01:46:04.747Z,16.00
2018-06-10T01:47:04.745Z,17.00
2018-06-10T01:48:04.740Z,16.00
2018-06-10T01:49:04.755Z,16.00
2018-06-10T01:50:04.767Z,16.00
2018-06-10T01:51:04.844Z,8.00
2018-06-10T01:52:04.816Z,17.00
2018-06-10T01:53:04.831Z,17.00
2018-06-10T01:54:04.832Z,16.00
2018-06-10T01:55:04.839Z,15.00
2018-06-10T01:56:05.885Z,14.00
2018-06-10T01:57:04.870Z,17.00
2018-06-10T01:58:04.891Z,15.00
2018-06-10T01:59:04.901Z,15.00
2018-06-10T02:00:04.940Z,16.00
2018-06-10T02:01:04.925Z,16.00
2018-06-10T02:02:04.946Z,16.00
2018-06-10T02:03:04.970Z,18.00
2018-06-10T02:04:05.011Z,15.00
2018-06-10T02:05:05.032Z,14.00
2018-06-10T02:06:05.029Z,14.00
2018-06-10T02:07:05.054Z,15.00
2018-06-10T02:08:05.058Z,13.00
2018-06-10T02:09:05.049Z,14.00
2018-06-10T02:10:05.080Z,13.00
2018-06-10T02:11:05.104Z,14.00
2018-06-10T02:12:05.196Z,13.00
2018-06-10T02:13:05.237Z,14.00
2018-06-10T02:14:05.133Z,14.00
2018-06-10T02:15:05.156Z,14.00
2018-06-10T02:16:05.163Z,14.00
2018-06-10T02:17:05.214Z,16.00
2018-06-10T02:18:05.216Z,14.00
2018-06-10T02:19:05.301Z,14.00
2018-06-10T02:20:06.320Z,15.00
2018-06-10T02:21:05.291Z,15.00
2018-06-10T02:22:05.261Z,14.00
2018-06-10T02:23:05.326Z,13.00
2018-06-10T02:24:07.352Z,14.00
2018-06-10T02:25:05.306Z,15.00
2018-06-10T02:26:05.322Z,13.00
2018-06-10T02:27:05.335Z,14.00
2018-06-10T02:28:10.267Z,15.00
2018-06-10T02:29:05.367Z,13.00
2018-06-10T02:30:12.306Z,13.00
2018-06-10T02:31:05.424Z,14.00
2018-06-10T02:32:05.431Z,14.00
2018-06-10T02:33:05.435Z,13.00
2018-06-10T02:34:05.439Z,14.00
2018-06-10T02:35:05.457Z,12.00
2018-06-10T02:36:07.545Z,13.00
2018-06-10T02:37:05.506Z,9.00
2018-06-10T02:38:10.280Z,14.00
2018-06-10T02:39:05.522Z,15.00
2018-06-10T02:40:07.581Z,13.00
2018-06-10T02:41:05.576Z,14.00
2018-06-10T02:42:06.628Z,15.00
2018-06-10T02:43:05.627Z,16.00
2018-06-10T02:44:06.599Z,13.00
2018-06-10T02:45:05.605Z,13.00
2018-06-10T02:46:11.290Z,11.00
2018-06-10T02:47:06.308Z,13.00
2018-06-10T02:48:05.677Z,16.00
2018-06-10T02:49:05.792Z,13.00
2018-06-10T02:50:17.425Z,12.00
2018-06-10T02:51:05.836Z,15.00
2018-06-10T02:52:11.347Z,13.00
2018-06-10T02:53:05.754Z,17.00
2018-06-10T02:54:07.764Z,15.00
2018-06-10T02:55:05.779Z,16.00
2018-06-10T02:56:06.879Z,13.00
2018-06-10T02:57:05.807Z,13.00
2018-06-10T02:58:26.831Z,15.00
2018-06-10T02:59:05.850Z,14.00
2018-06-10T06:10:39.678Z,14.00
2018-06-10T06:11:27.911Z,18.00
2018-06-10T06:12:28.911Z,14.00
2018-06-10T06:13:28.029Z,9.00
2018-06-10T06:14:28.963Z,12.00
2018-06-10T06:15:27.968Z,14.00
2018-06-10T06:16:28.998Z,18.00
2018-06-10T06:17:27.955Z,14.00
2018-06-10T06:18:30.028Z,13.00
2018-06-10T06:19:28.054Z,16.00
2018-06-10T06:20:28.049Z,11.00
2018-06-10T06:21:28.089Z,15.00
2018-06-10T06:22:29.088Z,13.00
2018-06-10T06:23:28.095Z,15.00
2018-06-10T06:24:28.089Z,13.00
2018-06-10T06:25:28.117Z,18.00
2018-06-10T06:26:28.139Z,12.00
2018-06-10T06:27:28.217Z,15.00
2018-06-10T06:28:28.187Z,14.00
2018-06-10T06:29:28.371Z,15.00
2018-06-10T06:30:34.850Z,12.00
2018-06-10T06:31:28.208Z,12.00
2018-06-10T06:32:29.273Z,10.00
2018-06-10T06:33:28.209Z,12.00
2018-06-10T06:34:30.315Z,13.00
2018-06-10T06:35:28.266Z,12.00
2018-06-10T06:36:28.253Z,12.00
2018-06-10T06:37:28.249Z,13.00
2018-06-10T06:38:32.885Z,11.00
2018-06-10T06:39:28.297Z,11.00
2018-06-10T06:40:30.449Z,13.00
2018-06-10T06:41:28.312Z,11.00
2018-06-10T06:42:29.406Z,14.00
2018-06-10T06:43:28.370Z,13.00
2018-06-10T06:44:30.445Z,13.00
2018-06-10T06:45:28.383Z,14.00
2018-06-10T06:46:28.423Z,14.00
2018-06-10T06:47:28.448Z,12.00
2018-06-10T06:48:28.528Z,13.00
2018-06-10T06:49:28.431Z,12.00
2018-06-10T06:50:29.604Z,13.00
2018-06-10T06:51:28.473Z,14.00
2018-06-10T06:52:28.601Z,14.00
2018-06-10T06:53:28.488Z,11.00
2018-06-10T06:54:29.642Z,12.00
2018-06-10T06:55:28.521Z,13.00
2018-06-10T06:56:28.592Z,16.00
2018-06-10T06:57:28.586Z,14.00
2018-06-10T06:58:28.554Z,14.00
2018-06-10T06:59:28.601Z,15.00
2018-06-10T07:00:28.607Z,14.00
2018-06-10T07:01:28.602Z,16.00
2018-06-10T07:02:28.625Z,16.00
2018-06-10T07:03:28.664Z,10.00
2018-06-10T07:04:28.648Z,14.00
2018-06-10T07:05:28.665Z,14.00
2018-06-10T07:06:28.676Z,13.00
2018-06-10T07:07:28.696Z,16.00
2018-06-10T07:08:28.762Z,13.00
2018-06-10T07:09:28.714Z,15.00
2018-06-10T07:10:28.729Z,15.00
2018-06-10T07:11:28.784Z,14.00
2018-06-10T07:12:28.767Z,15.00
2018-06-10T07:13:28.774Z,14.00
2018-06-10T07:14:28.777Z,14.00
2018-06-10T07:15:28.829Z,14.00
2018-06-10T07:16:28.836Z,16.00
2018-06-10T07:17:28.864Z,15.00
2018-06-10T07:18:28.846Z,18.00
2018-06-10T07:19:28.846Z,20.00
2018-06-10T07:20:28.859Z,20.00
2018-06-10T07:21:28.953Z,16.00
2018-06-10T07:22:28.885Z,18.00
2018-06-10T07:23:28.932Z,19.00
2018-06-10T07:24:30.016Z,19.00
2018-06-10T07:25:28.929Z,17.00
2018-06-10T07:26:28.999Z,20.00
2018-06-10T07:27:28.994Z,19.00
2018-06-10T07:28:28.980Z,10.00
2018-06-10T07:29:28.984Z,20.00
2018-06-10T07:30:29.038Z,25.00
2018-06-10T07:31:29.027Z,23.00
2018-06-10T07:32:29.057Z,15.00
2018-06-10T07:33:29.045Z,23.00
2018-06-10T07:34:29.157Z,14.00
2018-06-10T07:35:29.070Z,24.00
2018-06-10T07:36:29.165Z,23.00
2018-06-10T07:37:29.101Z,24.00
2018-06-10T07:38:29.216Z,28.00
2018-06-10T07:39:29.170Z,23.00
2018-06-10T07:40:29.245Z,24.00
2018-06-10T07:41:29.170Z,24.00
2018-06-10T07:42:29.217Z,24.00
2018-06-10T07:43:29.199Z,29.00
2018-06-10T07:44:29.202Z,24.00
2018-06-10T07:45:29.230Z,23.00
2018-06-10T07:46:29.344Z,31.00
2018-06-10T07:47:29.231Z,25.00
2018-06-10T07:48:29.330Z,21.00
2018-06-10T07:49:30.298Z,23.00
2018-06-10T07:50:29.263Z,28.00
2018-06-10T07:51:29.363Z,24.00
2018-06-10T07:52:29.316Z,28.00
2018-06-10T07:53:29.371Z,32.00
2018-06-10T07:54:29.340Z,27.00
2018-06-10T07:55:29.336Z,34.00
2018-06-10T07:56:29.419Z,30.00
2018-06-10T07:57:29.434Z,28.00
2018-06-10T07:58:29.508Z,28.00
2018-06-10T07:59:29.495Z,28.00
2018-06-10T08:00:29.482Z,27.00
2018-06-10T08:01:29.624Z,26.00
2018-06-10T08:02:29.445Z,28.00
2018-06-10T08:03:29.541Z,31.00
2018-06-10T08:04:29.478Z,31.00
2018-06-10T08:05:29.601Z,30.00
2018-06-10T08:06:29.527Z,19.00
2018-06-10T08:07:29.586Z,31.00
2018-06-10T08:08:29.532Z,30.00
2018-06-10T08:09:31.722Z,36.00
2018-06-10T08:10:29.556Z,31.00
2018-06-10T08:11:30.673Z,27.00
2018-06-10T08:12:29.598Z,46.00
2018-06-10T08:13:34.479Z,32.00
2018-06-10T08:14:29.626Z,34.00
2018-06-10T08:15:30.653Z,32.00
2018-06-10T08:16:29.676Z,37.00
2018-06-10T08:17:31.694Z,35.00
2018-06-10T08:18:29.677Z,38.00
2018-06-10T08:19:29.784Z,32.00
2018-06-10T08:20:29.708Z,40.00
2018-06-10T08:21:29.784Z,33.00
2018-06-10T08:22:29.736Z,33.00
2018-06-10T08:23:29.816Z,50.00
2018-06-10T08:24:29.753Z,38.00
2018-06-10T08:25:30.824Z,37.00
2018-06-10T08:26:29.778Z,28.00
2018-06-10T08:27:29.865Z,37.00
2018-06-10T08:28:29.803Z,27.00
2018-06-10T08:29:29.993Z,40.00
2018-06-10T08:30:29.859Z,38.00
2018-06-10T08:31:29.956Z,34.00
2018-06-10T08:32:29.855Z,34.00
2018-06-10T08:33:29.900Z,37.00
2018-06-10T08:34:29.971Z,33.00
2018-06-10T08:35:29.915Z,33.00
2018-06-10T08:36:29.918Z,37.00
2018-06-10T08:37:29.995Z,34.00
2018-06-10T08:38:29.949Z,31.00
2018-06-10T08:39:30.022Z,24.00
2018-06-10T08:40:30.008Z,32.00
2018-06-10T08:41:30.011Z,34.00
2018-06-10T08:42:31.051Z,33.00
2018-06-10T08:43:30.059Z,36.00
2018-06-10T08:44:30.039Z,38.00
2018-06-10T08:45:30.051Z,36.00
2018-06-10T08:46:30.051Z,37.00
2018-06-10T08:47:30.221Z,36.00
2018-06-10T08:48:30.091Z,34.00
2018-06-10T08:49:30.194Z,40.00
2018-06-10T08:50:30.185Z,35.00
2018-06-10T08:51:30.224Z,36.00
2018-06-10T08:52:30.169Z,34.00
2018-06-10T08:53:30.174Z,33.00
2018-06-10T08:54:30.183Z,38.00
2018-06-10T08:55:30.191Z,38.00
2018-06-10T08:56:32.277Z,36.00
2018-06-10T08:57:30.219Z,40.00
2018-06-10T08:58:42.978Z,34.00
2018-06-10T08:59:30.290Z,37.00
2018-06-10T09:00:34.988Z,38.00
2018-06-10T09:01:30.353Z,34.00
2018-06-10T09:02:45.980Z,38.00
2018-06-10T09:03:30.327Z,31.00
2018-06-10T09:04:46.017Z,26.00
2018-06-10T09:05:30.361Z,37.00
2018-06-10T09:06:35.011Z,42.00
2018-06-10T09:07:30.384Z,88.00
2018-06-10T09:08:43.140Z,34.00
2018-06-10T09:09:30.431Z,39.00
2018-06-10T09:10:34.962Z,36.00
2018-06-10T09:11:30.508Z,40.00
2018-06-10T09:12:32.556Z,41.00
2018-06-10T09:13:30.475Z,38.00
2018-06-10T09:14:45.696Z,39.00
2018-06-10T09:15:30.504Z,27.00
2018-06-10T09:16:51.634Z,39.00
2018-06-10T09:17:30.801Z,37.00
2018-06-10T09:18:42.504Z,37.00
2018-06-10T09:19:30.671Z,38.00
2018-06-10T09:20:35.569Z,27.00
2018-06-10T09:21:30.575Z,41.00
2018-06-10T09:22:32.731Z,38.00
2018-06-10T09:23:30.640Z,38.00
2018-06-10T09:24:42.527Z,45.00
2018-06-10T09:25:30.690Z,39.00
2018-06-10T09:26:31.733Z,40.00
2018-06-10T09:27:30.674Z,39.00
2018-06-10T09:28:54.534Z,36.00
2018-06-10T09:29:30.720Z,42.00
2018-06-10T09:30:30.748Z,42.00
2018-06-10T09:31:30.849Z,43.00
2018-06-10T09:32:30.754Z,43.00
2018-06-10T09:33:32.881Z,42.00
2018-06-10T09:34:30.779Z,47.00
2018-06-10T09:35:32.981Z,38.00
2018-06-10T09:36:30.812Z,41.00
2018-06-10T09:37:52.923Z,31.00
2018-06-10T09:38:30.875Z,40.00
2018-06-10T09:40:03.575Z,36.00
2018-06-10T09:40:30.881Z,38.00
2018-06-10T09:41:43.471Z,36.00
2018-06-10T09:42:30.985Z,35.00
2018-06-10T09:43:32.198Z,39.00
2018-06-10T09:44:30.927Z,38.00
2018-06-10T09:46:09.003Z,35.00
2018-06-10T09:46:31.040Z,37.00
2018-06-10T09:47:30.963Z,55.00
2018-06-10T09:48:31.076Z,43.00
2018-06-10T09:49:30.974Z,43.00
2018-06-10T09:51:09.063Z,30.00
2018-06-10T09:51:31.066Z,42.00
2018-06-10T11:18:40.436Z,44.00
2018-06-10T11:19:38.781Z,49.00
2018-06-10T11:20:39.814Z,37.00
2018-06-10T11:21:38.805Z,45.00
2018-06-10T11:22:38.936Z,47.00
2018-06-10T11:23:40.441Z,43.00
2018-06-10T11:24:38.885Z,44.00
2018-06-10T11:25:41.543Z,47.00
2018-06-10T11:26:40.421Z,42.00
2018-06-10T11:27:40.643Z,32.00
2018-06-10T11:28:38.901Z,48.00
2018-06-10T11:29:42.147Z,46.00
2018-06-10T11:30:40.080Z,44.00
2018-06-10T11:31:38.942Z,48.00
2018-06-10T11:32:38.976Z,36.00
2018-06-10T11:33:41.900Z,50.00
2018-06-10T11:34:38.998Z,37.00
2018-06-10T11:35:40.936Z,53.00
2018-06-10T11:36:41.158Z,48.00
2018-06-10T11:37:39.032Z,41.00
2018-06-10T11:38:39.164Z,37.00
2018-06-10T11:39:39.089Z,43.00
2018-06-10T11:40:50.029Z,41.00
2018-06-10T11:41:39.114Z,46.00
2018-06-10T11:42:39.310Z,38.00
2018-06-10T11:43:39.161Z,32.00
2018-06-10T11:44:41.217Z,48.00
2018-06-10T11:45:39.166Z,41.00
2018-06-10T11:46:39.183Z,43.00
2018-06-10T11:47:39.185Z,45.00
2018-06-10T11:48:40.330Z,39.00
2018-06-10T11:49:39.204Z,44.00
2018-06-10T11:50:44.036Z,72.00
2018-06-10T11:51:39.248Z,35.00
2018-06-10T11:52:39.323Z,42.00
2018-06-10T11:53:40.460Z,36.00
2018-06-10T11:54:39.295Z,43.00
2018-06-10T11:55:39.322Z,57.00
2018-06-10T11:56:39.755Z,49.00
2018-06-10T11:57:39.368Z,33.00
2018-06-10T11:58:39.497Z,47.00
2018-06-10T11:59:39.412Z,44.00
2018-06-10T12:00:39.463Z,49.00
2018-06-10T12:01:40.496Z,41.00
2018-06-10T12:02:39.423Z,43.00
2018-06-10T12:03:39.719Z,33.00
2018-06-10T12:04:39.453Z,41.00
2018-06-10T12:05:39.686Z,40.00
2018-06-10T12:06:39.496Z,44.00
2018-06-10T12:07:39.507Z,45.00
2018-06-10T12:08:39.598Z,49.00
2018-06-10T12:09:39.542Z,39.00
2018-06-10T12:10:39.589Z,43.00
2018-06-10T12:11:40.666Z,44.00
2018-06-10T12:12:39.597Z,44.00
2018-06-10T12:13:39.683Z,53.00
2018-06-10T12:14:39.584Z,39.00
2018-06-10T12:15:39.597Z,45.00
2018-06-10T12:16:39.683Z,57.00
2018-06-10T12:17:39.630Z,51.00
2018-06-10T12:18:39.699Z,41.00
2018-06-10T12:19:39.700Z,45.00
2018-06-10T12:20:39.706Z,42.00
2018-06-10T12:21:39.763Z,49.00
2018-06-10T12:22:39.755Z,46.00
2018-06-10T12:23:40.827Z,55.00
2018-06-10T12:24:39.768Z,44.00
2018-06-10T12:25:39.811Z,39.00
2018-06-10T12:26:39.847Z,48.00
2018-06-10T12:27:39.928Z,33.00
2018-06-10T12:28:39.830Z,47.00
2018-06-10T12:29:39.849Z,43.00
2018-06-10T12:30:39.851Z,44.00
2018-06-10T12:31:39.967Z,43.00
2018-06-10T12:32:39.892Z,33.00
2018-06-10T12:33:39.961Z,38.00
2018-06-10T12:34:39.917Z,46.00
2018-06-10T12:35:39.972Z,42.00
2018-06-10T12:36:39.966Z,44.00
2018-06-10T12:37:40.113Z,61.00
2018-06-10T12:38:40.024Z,39.00
2018-06-10T12:39:40.141Z,45.00
2018-06-10T12:40:40.016Z,43.00
2018-06-10T12:41:41.193Z,33.00
2018-06-10T12:42:40.084Z,45.00
2018-06-10T12:43:40.147Z,40.00
2018-06-10T12:44:40.097Z,45.00
2018-06-10T12:45:40.132Z,51.00
2018-06-10T12:46:40.114Z,45.00
2018-06-10T12:47:40.153Z,36.00
2018-06-10T12:48:42.258Z,47.00
2018-06-10T12:49:40.186Z,41.00
2018-06-10T12:50:46.063Z,39.00
2018-06-10T12:51:40.213Z,46.00
2018-06-10T12:52:40.316Z,45.00
2018-06-10T12:53:40.238Z,44.00
2018-06-10T12:54:41.356Z,41.00
2018-06-10T12:55:40.274Z,45.00
2018-06-10T12:56:41.361Z,58.00
2018-06-10T12:57:40.300Z,45.00
2018-06-10T12:58:45.057Z,47.00
2018-06-10T12:59:40.348Z,43.00
2018-06-10T13:00:42.415Z,33.00
2018-06-10T13:01:40.364Z,42.00
2018-06-10T13:02:41.537Z,43.00
2018-06-10T13:03:40.415Z,41.00
2018-06-10T13:04:41.549Z,53.00
2018-06-10T13:05:40.512Z,42.00
2018-06-10T13:06:40.607Z,35.00
2018-06-10T13:07:40.506Z,44.00
2018-06-10T13:08:41.693Z,44.00
2018-06-10T13:09:40.503Z,46.00
2018-06-10T13:10:40.697Z,33.00
2018-06-10T13:11:40.533Z,46.00
2018-06-10T13:12:40.662Z,47.00
2018-06-10T13:13:40.575Z,42.00
2018-06-10T13:14:40.672Z,44.00
2018-06-10T13:15:40.603Z,42.00
2018-06-10T13:16:40.694Z,40.00
2018-06-10T13:17:40.686Z,44.00
2018-06-10T13:18:42.822Z,36.00
2018-06-10T13:19:40.662Z,35.00
2018-06-10T13:20:42.788Z,44.00
2018-06-10T13:21:40.687Z,44.00
2018-06-10T13:22:40.844Z,42.00
2018-06-10T13:23:40.740Z,48.00
2018-06-10T13:24:41.866Z,41.00
2018-06-10T13:25:40.797Z,40.00
2018-06-10T13:26:40.848Z,45.00
2018-06-10T13:27:40.885Z,36.00
2018-06-10T13:28:41.892Z,45.00
2018-06-10T13:29:40.824Z,50.00
2018-06-10T13:30:41.014Z,53.00
2018-06-10T13:31:40.882Z,45.00
2018-06-10T13:32:42.057Z,45.00
2018-06-10T13:33:40.917Z,45.00
2018-06-10T13:34:42.083Z,45.00
2018-06-10T13:35:40.968Z,45.00
2018-06-10T13:36:42.957Z,45.00
2018-06-10T13:37:40.965Z,41.00
2018-06-10T13:38:41.042Z,51.00
2018-06-10T13:39:41.037Z,54.00
2018-06-10T13:40:56.021Z,40.00
2018-06-10T13:41:41.045Z,43.00
2018-06-10T13:42:48.037Z,42.00
2018-06-10T13:43:41.076Z,42.00
2018-06-10T13:44:47.989Z,50.00
2018-06-10T13:45:41.075Z,33.00
2018-06-10T13:46:42.184Z,43.00
2018-06-10T13:47:41.151Z,47.00
2018-06-10T13:48:54.055Z,45.00
2018-06-10T13:49:41.200Z,43.00
2018-06-10T13:50:41.205Z,45.00
2018-06-10T13:51:41.197Z,46.00
2018-06-10T13:52:41.265Z,41.00
2018-06-10T13:53:41.265Z,48.00
2018-06-10T13:54:41.254Z,43.00
2018-06-10T13:55:41.287Z,49.00
2018-06-10T13:56:41.274Z,37.00
2018-06-10T13:57:41.316Z,40.00
2018-06-10T13:58:41.360Z,38.00
2018-06-10T13:59:41.335Z,61.00
2018-06-10T14:00:42.357Z,56.00
2018-06-10T14:01:41.399Z,45.00
2018-06-10T14:02:42.400Z,41.00
2018-06-10T14:03:41.395Z,48.00
2018-06-10T14:04:41.421Z,44.00
2018-06-10T14:05:41.427Z,46.00
2018-06-10T14:06:42.500Z,41.00
2018-06-10T14:07:41.456Z,47.00
2018-06-10T14:08:41.485Z,38.00
2018-06-10T14:09:41.497Z,55.00
2018-06-10T14:10:46.506Z,54.00
2018-06-10T14:11:41.566Z,47.00
2018-06-10T14:12:41.572Z,45.00
2018-06-10T14:13:41.586Z,39.00
2018-06-10T14:14:43.598Z,48.00
2018-06-10T14:15:41.599Z,45.00
2018-06-10T14:16:41.610Z,45.00
2018-06-10T14:17:41.612Z,40.00
2018-06-10T14:18:41.638Z,33.00
2018-06-10T14:19:43.653Z,40.00
2018-06-10T14:20:41.672Z,43.00
2018-06-10T14:21:41.678Z,41.00
2018-06-10T14:22:41.770Z,43.00
2018-06-10T14:23:42.759Z,42.00
2018-06-10T14:24:41.759Z,43.00
2018-06-10T14:25:41.770Z,43.00
2018-06-10T14:26:41.810Z,43.00
2018-06-10T14:27:41.809Z,43.00
2018-06-10T14:28:41.855Z,42.00
2018-06-10T14:29:42.821Z,47.00
2018-06-10T14:30:41.916Z,45.00
2018-06-10T14:31:41.868Z,43.00
2018-06-10T14:32:41.873Z,45.00
2018-06-10T14:33:41.887Z,42.00
2018-06-10T14:34:41.897Z,36.00
2018-06-10T14:35:41.975Z,46.00
2018-06-10T14:36:41.941Z,48.00
2018-06-10T14:37:41.959Z,45.00
2018-06-10T14:38:41.966Z,41.00
2018-06-10T14:39:42.007Z,50.00
2018-06-10T14:40:42.017Z,45.00
2018-06-10T14:41:42.005Z,44.00
2018-06-10T14:42:42.031Z,41.00
2018-06-10T14:43:42.055Z,65.00
2018-06-10T14:44:42.067Z,43.00
2018-06-10T14:45:42.084Z,43.00
2018-06-10T14:46:42.091Z,45.00
2018-06-10T14:47:42.142Z,46.00
2018-06-10T14:48:42.137Z,47.00
2018-06-10T14:49:42.210Z,47.00
2018-06-10T14:50:42.156Z,43.00
2018-06-10T14:51:42.174Z,38.00
2018-06-10T14:52:42.172Z,45.00
2018-06-10T14:53:47.233Z,47.00
2018-06-10T14:54:42.219Z,49.00
2018-06-10T14:55:42.242Z,47.00
2018-06-10T14:56:42.246Z,36.00
2018-06-10T14:57:42.272Z,41.00
2018-06-10T14:58:42.302Z,42.00
2018-06-10T14:59:42.315Z,53.00
2018-06-10T15:00:42.350Z,42.00
2018-06-10T15:01:42.351Z,47.00
2018-06-10T15:02:42.348Z,45.00
2018-06-10T15:03:42.391Z,41.00
2018-06-10T15:04:42.389Z,46.00
2018-06-10T15:05:42.400Z,100.00
2018-06-10T15:06:42.451Z,41.00
2018-06-10T15:07:43.508Z,42.00
2018-06-10T15:08:42.469Z,40.00
2018-06-10T15:09:42.504Z,33.00
2018-06-10T15:10:42.486Z,55.00
2018-06-10T15:11:42.526Z,38.00
2018-06-10T15:12:42.529Z,42.00
2018-06-10T15:13:42.564Z,48.00
2018-06-10T15:14:42.558Z,33.00
2018-06-10T15:15:42.572Z,42.00
2018-06-10T15:16:42.585Z,45.00
2018-06-10T15:17:42.623Z,35.00
2018-06-10T15:18:42.645Z,44.00
2018-06-10T15:19:42.643Z,40.00
2018-06-10T15:20:42.711Z,42.00
2018-06-10T15:21:42.737Z,47.00
2018-06-10T15:22:42.959Z,44.00
2018-06-10T15:23:42.742Z,45.00
2018-06-10T15:24:42.731Z,44.00
2018-06-10T15:25:44.766Z,45.00
2018-06-10T15:26:42.762Z,44.00
2018-06-10T15:27:48.575Z,46.00
2018-06-10T15:28:42.831Z,45.00
2018-06-10T15:29:43.903Z,44.00
2018-06-10T15:30:42.840Z,44.00
2018-06-10T15:31:59.523Z,45.00
2018-06-10T15:32:42.866Z,47.00
2018-06-10T15:33:49.529Z,45.00
2018-06-10T15:34:42.894Z,45.00
2018-06-10T15:35:42.911Z,33.00
2018-06-10T15:36:42.938Z,53.00
2018-06-10T15:37:42.978Z,37.00
2018-06-10T15:38:42.959Z,46.00
2018-06-10T15:39:45.101Z,41.00
2018-06-10T15:40:43.008Z,44.00
2018-06-10T15:41:43.047Z,44.00
2018-06-10T15:46:54.292Z,51.00
2018-06-10T15:48:33.674Z,104.00
2018-06-10T15:50:19.999Z,51.03
2018-06-10T15:51:19.823Z,51.76
2018-06-10T15:53:29.494Z,101.32
2018-06-10T15:54:44.990Z,51.27
2018-06-10T15:55:45.004Z,52.25
2018-06-10T15:57:39.118Z,50.78
2018-06-10T15:58:39.103Z,51.51
2018-06-10T16:00:33.181Z,51.76
2018-06-10T16:01:33.190Z,52.00
2018-06-10T16:03:27.323Z,51.27
2018-06-10T16:04:27.286Z,48.58
2018-06-10T16:06:21.410Z,50.78
2018-06-10T16:07:21.401Z,51.27
2018-06-10T16:09:14.514Z,54.69
2018-06-10T16:10:08.044Z,49.32
2018-06-10T16:11:08.067Z,49.32
2018-06-10T16:13:02.169Z,49.32
2018-06-10T16:14:02.180Z,52.25
2018-06-10T16:15:56.298Z,49.80
2018-06-10T16:16:56.319Z,50.54
2018-06-10T16:18:50.376Z,50.54
2018-06-10T16:19:50.382Z,49.80
2018-06-10T16:21:44.492Z,51.76
2018-06-10T16:22:44.488Z,49.32
2018-06-10T16:24:38.582Z,50.29
2018-06-10T16:25:38.589Z,50.29
2018-06-10T16:27:32.766Z,49.80
2018-06-10T16:28:32.768Z,52.98
2018-06-10T16:30:26.843Z,51.03
2018-06-10T16:31:26.852Z,49.80
2018-06-10T16:33:20.987Z,50.29
2018-06-10T16:34:20.995Z,49.80
2018-06-10T16:36:15.066Z,49.56
2018-06-10T16:37:15.085Z,49.32
2018-06-10T16:39:09.200Z,49.56
2018-06-10T16:40:09.196Z,50.05
2018-06-10T16:42:03.297Z,50.29
2018-06-10T16:43:03.285Z,49.56
2018-06-10T16:44:57.392Z,49.07
2018-06-10T16:45:57.388Z,50.05
2018-06-10T16:47:51.483Z,50.05
2018-06-10T16:48:51.482Z,50.54
2018-06-10T16:50:45.598Z,50.29
2018-06-10T16:51:45.590Z,50.29
2018-06-10T16:53:39.705Z,52.00
2018-06-10T16:54:39.694Z,49.56
2018-06-10T16:56:33.789Z,49.32
2018-06-10T16:57:33.803Z,49.80
2018-06-10T16:59:27.900Z,50.05
2018-06-10T17:00:27.891Z,50.29
2018-06-10T17:02:22.004Z,49.80
2018-06-10T17:03:22.009Z,49.56
2018-06-10T17:05:16.108Z,50.29
2018-06-10T17:06:16.090Z,38.57
2018-06-10T17:08:09.200Z,46.63
2018-06-10T17:09:09.185Z,53.96
2018-06-10T17:11:02.284Z,56.88
2018-06-10T17:12:02.370Z,55.18
2018-06-10T17:13:55.430Z,38.33
2018-06-10T17:15:42.519Z,49.80
2018-06-10T17:16:42.524Z,54.69
2018-06-10T17:19:03.575Z,45.65
2018-06-10T17:22:36.319Z,55.42
2018-06-10T17:23:36.319Z,41.50
2018-06-10T17:25:29.439Z,50.29
2018-06-10T17:26:29.415Z,58.84
2018-06-10T17:28:22.551Z,56.15
2018-06-10T17:29:22.518Z,51.03
2018-06-10T17:31:15.602Z,48.10
2018-06-10T17:32:15.611Z,52.98
2018-06-10T17:34:08.726Z,49.07
2018-06-10T17:35:08.725Z,37.60
2018-06-10T17:37:02.012Z,44.68
2018-06-10T17:38:02.010Z,38.09
2018-06-10T17:39:55.141Z,58.35
2018-06-10T17:40:55.113Z,50.05
2018-06-10T17:42:48.202Z,48.34
2018-06-10T17:43:48.212Z,49.80
2018-06-10T17:45:41.331Z,53.22
2018-06-10T17:46:41.315Z,44.19
2018-06-10T17:48:34.428Z,38.57
2018-06-10T17:49:34.422Z,44.92
2018-06-10T17:51:27.526Z,34.67
2018-06-10T17:52:27.540Z,38.09
2018-06-10T17:54:20.679Z,32.71
2018-06-10T17:55:20.679Z,40.77
2018-06-10T17:57:58.787Z,51.27
2018-06-10T17:58:58.790Z,53.96
2018-06-10T18:00:51.891Z,35.16
2018-06-10T18:01:51.887Z,53.96
2018-06-10T18:03:45.118Z,50.78
2018-06-10T18:04:45.020Z,41.02
2018-06-10T18:06:38.685Z,49.56
2018-06-10T18:07:38.691Z,49.07
2018-06-10T18:09:31.812Z,49.32
2018-06-10T18:10:31.796Z,53.22
2018-06-10T18:12:24.906Z,36.62
2018-06-10T18:13:24.934Z,54.93
2018-06-10T18:15:18.021Z,53.71
2018-06-10T18:16:18.005Z,47.36
2018-06-10T18:18:11.130Z,30.76
2018-06-10T18:19:11.153Z,36.62
2018-06-10T18:21:04.362Z,35.40
2018-06-10T18:22:04.246Z,32.23
2018-06-10T18:23:57.336Z,34.67